createdAt,value
2017-08-25T00:00:23.801Z,15.50
2017-08-25T00:02:51.329Z,15.40
2017-08-25T00:05:18.835Z,15.40
2017-08-25T00:07:46.493Z,15.40
2017-08-25T00:10:13.994Z,15.30
2017-08-25T00:12:41.511Z,15.40
2017-08-25T00:15:08.997Z,15.30
2017-08-25T00:17:36.492Z,15.30
2017-08-25T00:20:03.975Z,15.30
2017-08-25T00:22:31.469Z,15.30
2017-08-25T00:24:58.988Z,15.20
2017-08-25T00:27:27.265Z,15.20
2017-08-25T00:29:54.753Z,15.20
2017-08-25T00:32:22.252Z,15.20
2017-08-25T00:34:49.746Z,15.20
2017-08-25T00:37:17.236Z,15.20
2017-08-25T00:39:44.780Z,15.20
2017-08-25T00:42:12.267Z,15.10
2017-08-25T00:44:39.754Z,15.10
2017-08-25T00:47:07.237Z,15.10
2017-08-25T00:49:34.761Z,15.00
2017-08-25T00:52:02.273Z,15.00
2017-08-25T00:54:29.795Z,15.00
2017-08-25T00:56:57.278Z,15.00
2017-08-25T00:59:24.793Z,15.00
2017-08-25T01:01:52.346Z,14.90
2017-08-25T01:04:19.854Z,15.00
2017-08-25T01:06:47.358Z,15.00
2017-08-25T01:09:14.843Z,15.00
2017-08-25T01:11:42.377Z,14.90
2017-08-25T01:14:09.882Z,14.90
2017-08-25T01:16:37.426Z,14.90
2017-08-25T01:19:04.917Z,14.90
2017-08-25T01:21:32.412Z,14.80
2017-08-25T01:23:59.914Z,14.80
2017-08-25T01:26:27.397Z,14.80
2017-08-25T01:28:54.888Z,14.80
2017-08-25T01:31:22.381Z,14.80
2017-08-25T01:33:49.891Z,14.80
2017-08-25T01:36:17.389Z,14.70
2017-08-25T01:38:44.890Z,14.70
2017-08-25T01:41:12.363Z,14.70
2017-08-25T01:43:39.860Z,14.70
2017-08-25T01:46:07.381Z,14.70
2017-08-25T01:48:34.872Z,14.60
2017-08-25T01:51:02.381Z,14.70
2017-08-25T01:53:29.883Z,14.60
2017-08-25T01:55:57.368Z,14.60
2017-08-25T01:58:24.846Z,14.70
2017-08-25T02:00:52.341Z,14.60
2017-08-25T02:03:19.824Z,14.60
2017-08-25T02:05:47.319Z,14.60
2017-08-25T02:08:14.819Z,14.60
2017-08-25T02:10:42.309Z,14.60
2017-08-25T02:13:09.848Z,14.60
2017-08-25T02:15:37.333Z,14.50
2017-08-25T02:18:04.842Z,14.50
2017-08-25T02:20:32.345Z,14.50
2017-08-25T02:22:59.858Z,14.50
2017-08-25T02:25:27.351Z,14.50
2017-08-25T02:27:54.860Z,14.60
2017-08-25T02:30:22.349Z,14.50
2017-08-25T02:32:49.834Z,14.50
2017-08-25T02:35:17.323Z,14.60
2017-08-25T02:37:44.862Z,14.60
2017-08-25T02:40:12.353Z,14.70
2017-08-25T02:42:39.880Z,14.80
2017-08-25T02:45:07.383Z,14.90
2017-08-25T02:47:34.882Z,15.00
2017-08-25T02:50:02.391Z,15.00
2017-08-25T02:52:29.895Z,14.90
2017-08-25T02:54:57.407Z,14.90
2017-08-25T02:57:24.908Z,14.90
2017-08-25T02:59:52.395Z,14.90
2017-08-25T03:02:19.884Z,14.90
2017-08-25T03:04:47.396Z,14.80
2017-08-25T03:07:14.884Z,14.80
2017-08-25T03:09:42.369Z,14.80
2017-08-25T03:12:09.873Z,14.80
2017-08-25T03:14:37.379Z,14.70
2017-08-25T03:17:04.859Z,14.60
2017-08-25T03:19:32.365Z,14.60
2017-08-25T03:21:59.872Z,14.60
2017-08-25T03:24:27.363Z,14.60
2017-08-25T03:26:54.867Z,14.70
2017-08-25T03:29:22.371Z,14.70
2017-08-25T03:31:49.871Z,14.70
2017-08-25T03:34:17.356Z,14.80
2017-08-25T03:36:44.869Z,14.80
2017-08-25T03:39:12.360Z,14.80
2017-08-25T03:41:39.901Z,14.80
2017-08-25T03:44:07.414Z,14.80
2017-08-25T03:46:34.933Z,14.80
2017-08-25T03:49:02.428Z,14.80
2017-08-25T03:51:29.930Z,14.90
2017-08-25T03:53:57.455Z,14.90
2017-08-25T03:56:24.939Z,14.90
2017-08-25T03:58:52.447Z,15.10
2017-08-25T04:01:19.971Z,15.10
2017-08-25T04:03:47.663Z,15.20
2017-08-25T04:06:15.138Z,15.20
2017-08-25T04:08:42.638Z,15.30
2017-08-25T04:11:10.151Z,15.30
2017-08-25T04:13:37.663Z,15.30
2017-08-25T04:16:05.140Z,15.30
2017-08-25T04:18:32.630Z,15.30
2017-08-25T04:21:00.139Z,15.40
2017-08-25T04:23:27.782Z,15.40
2017-08-25T04:25:55.296Z,15.50
2017-08-25T04:28:22.788Z,15.60
2017-08-25T04:30:50.297Z,15.50
2017-08-25T04:33:17.826Z,15.60
2017-08-25T04:35:45.348Z,15.60
2017-08-25T04:38:12.936Z,15.60
2017-08-25T04:40:40.433Z,15.60
2017-08-25T04:43:07.948Z,15.60
2017-08-25T04:45:35.518Z,15.60
2017-08-25T04:48:03.537Z,15.50
2017-08-25T04:50:31.032Z,15.50
2017-08-25T04:52:58.528Z,15.50
2017-08-25T04:55:26.050Z,15.50
2017-08-25T04:57:53.571Z,15.50
2017-08-25T05:00:21.391Z,15.50
2017-08-25T05:02:48.993Z,15.40
2017-08-25T05:05:16.495Z,15.40
2017-08-25T05:07:44.013Z,15.40
2017-08-25T05:10:11.545Z,15.40
2017-08-25T05:12:39.132Z,15.40
2017-08-25T05:15:06.648Z,15.40
2017-08-25T05:17:34.159Z,15.40
2017-08-25T05:20:01.719Z,15.40
2017-08-25T05:22:29.266Z,15.40
2017-08-25T05:24:56.821Z,15.40
2017-08-25T05:27:24.359Z,15.50
2017-08-25T05:29:51.853Z,15.50
2017-08-25T05:32:19.376Z,15.60
2017-08-25T05:34:46.904Z,15.60
2017-08-25T05:37:14.424Z,15.70
2017-08-25T05:39:41.921Z,15.70
2017-08-25T05:42:09.452Z,15.90
2017-08-25T05:44:37.005Z,15.90
2017-08-25T05:47:04.543Z,16.00
2017-08-25T05:49:32.092Z,16.00
2017-08-25T05:52:00.384Z,16.10
2017-08-25T05:54:27.931Z,16.10
2017-08-25T05:56:55.460Z,16.20
2017-08-25T05:59:22.947Z,16.20
2017-08-25T06:01:50.460Z,16.20
2017-08-25T06:04:18.010Z,16.30
2017-08-25T06:06:45.547Z,16.30
2017-08-25T06:09:13.088Z,16.20
2017-08-25T06:11:40.604Z,16.30
2017-08-25T06:14:08.115Z,16.30
2017-08-25T06:16:35.759Z,16.30
2017-08-25T06:19:03.281Z,16.20
2017-08-25T06:21:30.827Z,16.20
2017-08-25T06:23:58.313Z,16.20
2017-08-25T06:26:25.844Z,16.20
2017-08-25T06:28:53.372Z,16.10
2017-08-25T06:31:20.897Z,16.10
2017-08-25T06:33:48.396Z,16.10
2017-08-25T06:36:15.915Z,16.10
2017-08-25T06:38:43.452Z,16.20
2017-08-25T06:41:11.037Z,16.30
2017-08-25T06:43:38.566Z,16.30
2017-08-25T06:46:06.068Z,16.40
2017-08-25T06:48:33.619Z,16.50
2017-08-25T06:51:01.176Z,16.50
2017-08-25T06:53:28.701Z,16.50
2017-08-25T06:55:56.276Z,16.50
2017-08-25T06:58:23.812Z,16.60
2017-08-25T07:00:51.327Z,16.60
2017-08-25T07:03:18.832Z,16.60
2017-08-25T07:05:46.366Z,16.60
2017-08-25T07:08:13.890Z,16.70
2017-08-25T07:10:41.412Z,16.70
2017-08-25T07:13:08.972Z,16.80
2017-08-25T07:15:36.563Z,16.80
2017-08-25T07:18:04.124Z,16.90
2017-08-25T07:20:31.672Z,17.00
2017-08-25T07:22:59.251Z,17.10
2017-08-25T07:25:26.792Z,17.10
2017-08-25T07:27:54.347Z,17.10
2017-08-25T07:30:21.879Z,17.20
2017-08-25T07:32:49.424Z,17.30
2017-08-25T07:35:16.923Z,17.40
2017-08-25T07:37:45.037Z,17.60
2017-08-25T07:40:12.568Z,17.70
2017-08-25T07:42:40.124Z,18.00
2017-08-25T07:45:07.700Z,18.20
2017-08-25T07:47:35.311Z,18.40
2017-08-25T07:50:02.809Z,18.60
2017-08-25T07:52:30.320Z,18.70
2017-08-25T07:54:57.835Z,18.70
2017-08-25T07:57:25.324Z,18.90
2017-08-25T07:59:52.877Z,19.00
2017-08-25T08:02:20.399Z,19.00
2017-08-25T08:04:47.916Z,19.20
2017-08-25T08:07:15.424Z,19.30
2017-08-25T08:09:42.956Z,19.30
2017-08-25T08:12:10.486Z,19.40
2017-08-25T08:14:38.000Z,19.50
2017-08-25T08:17:05.503Z,19.50
2017-08-25T08:19:32.972Z,19.40
2017-08-25T08:22:00.506Z,19.40
2017-08-25T08:24:28.028Z,19.40
2017-08-25T08:26:55.568Z,19.40
2017-08-25T08:29:23.062Z,19.40
2017-08-25T08:31:50.577Z,19.50
2017-08-25T08:34:18.099Z,19.50
2017-08-25T08:36:45.590Z,19.60
2017-08-25T08:39:13.134Z,19.60
2017-08-25T08:41:40.708Z,19.60
2017-08-25T08:44:08.274Z,19.60
2017-08-25T08:46:35.818Z,19.50
2017-08-25T08:49:03.353Z,19.50
2017-08-25T08:51:30.861Z,19.60
2017-08-25T08:53:58.351Z,19.80
2017-08-25T08:56:26.096Z,20.00
2017-08-25T08:58:53.603Z,20.10
2017-08-25T09:01:21.111Z,20.20
2017-08-25T09:03:48.606Z,20.30
2017-08-25T09:06:21.664Z,20.40
2017-08-25T09:08:49.263Z,20.50
2017-08-25T09:11:16.806Z,20.50
2017-08-25T09:13:44.683Z,20.50
2017-08-25T09:16:12.193Z,20.50
2017-08-25T09:18:39.746Z,20.50
2017-08-25T09:21:07.323Z,20.50
2017-08-25T09:23:34.835Z,20.60
2017-08-25T09:26:02.383Z,20.70
2017-08-25T09:28:29.970Z,20.90
2017-08-25T09:30:57.450Z,20.90
2017-08-25T09:33:24.980Z,20.90
2017-08-25T09:35:52.503Z,20.80
2017-08-25T09:38:19.999Z,20.80
2017-08-25T09:40:47.481Z,20.80
2017-08-25T09:43:14.987Z,20.90
2017-08-25T09:45:42.498Z,20.90
2017-08-25T09:48:10.005Z,20.80
2017-08-25T09:50:37.566Z,20.60
2017-08-25T09:53:05.161Z,20.50
2017-08-25T09:55:32.711Z,20.50
2017-08-25T09:58:00.247Z,20.50
2017-08-25T10:00:27.789Z,20.60
2017-08-25T10:02:55.336Z,20.60
2017-08-25T10:05:22.933Z,20.60
2017-08-25T10:07:50.428Z,20.60
2017-08-25T10:10:18.666Z,20.60
2017-08-25T10:12:46.175Z,20.50
2017-08-25T10:15:13.720Z,20.50
2017-08-25T10:17:41.264Z,20.60
2017-08-25T10:20:09.034Z,20.70
2017-08-25T10:22:36.596Z,20.70
2017-08-25T10:25:04.120Z,20.60
2017-08-25T10:27:31.631Z,20.50
2017-08-25T10:29:59.115Z,20.30
2017-08-25T10:32:26.639Z,20.30
2017-08-25T10:35:06.021Z,20.30
2017-08-25T10:37:45.369Z,20.30
2017-08-25T10:40:24.629Z,20.40
2017-08-25T10:43:03.745Z,20.50
2017-08-25T10:45:31.321Z,20.60
2017-08-25T10:47:58.951Z,20.80
2017-08-25T10:50:26.615Z,21.00
2017-08-25T10:52:54.380Z,21.10
2017-08-25T10:55:22.041Z,21.30
2017-08-25T10:57:49.555Z,21.50
2017-08-25T11:00:17.097Z,21.60
2017-08-25T11:02:44.764Z,21.60
2017-08-25T11:05:12.291Z,21.70
2017-08-25T11:07:39.827Z,21.70
2017-08-25T11:10:07.522Z,21.80
2017-08-25T11:12:35.059Z,21.90
2017-08-25T11:15:02.605Z,22.00
2017-08-25T11:17:30.306Z,22.00
2017-08-25T11:19:57.934Z,21.90
2017-08-25T11:22:25.476Z,21.70
2017-08-25T11:24:53.012Z,21.50
2017-08-25T11:27:20.546Z,21.30
2017-08-25T11:29:48.365Z,21.10
2017-08-25T11:32:15.938Z,21.00
2017-08-25T11:34:43.442Z,21.00
2017-08-25T11:37:11.004Z,21.20
2017-08-25T11:39:38.548Z,21.10
2017-08-25T11:42:06.121Z,21.20
2017-08-25T11:44:33.646Z,21.30
2017-08-25T11:47:01.139Z,21.30
2017-08-25T11:49:28.674Z,21.30
2017-08-25T11:51:56.203Z,21.30
2017-08-25T11:54:23.691Z,21.30
2017-08-25T11:56:51.210Z,21.20
2017-08-25T11:59:18.837Z,21.20
2017-08-25T12:01:46.387Z,21.30
2017-08-25T12:04:14.442Z,21.50
2017-08-25T12:06:41.979Z,21.70
2017-08-25T12:09:09.482Z,21.90
2017-08-25T12:11:36.994Z,22.00
2017-08-25T12:14:04.495Z,22.10
2017-08-25T12:16:31.980Z,22.10
2017-08-25T12:18:59.472Z,22.10
2017-08-25T12:21:26.998Z,21.90
2017-08-25T12:23:54.518Z,21.80
2017-08-25T12:26:22.058Z,21.80
2017-08-25T12:28:49.543Z,21.70
2017-08-25T12:31:17.030Z,21.80
2017-08-25T12:33:44.588Z,21.80
2017-08-25T12:36:12.174Z,21.90
2017-08-25T12:38:39.849Z,22.00
2017-08-25T12:41:07.374Z,22.10
2017-08-25T12:43:34.934Z,22.20
2017-08-25T12:46:02.444Z,22.30
2017-08-25T12:48:30.006Z,22.40
2017-08-25T12:50:57.622Z,22.40
2017-08-25T12:53:25.130Z,22.40
2017-08-25T12:55:52.744Z,22.40
2017-08-25T12:58:20.247Z,22.40
2017-08-25T13:00:47.815Z,22.30
2017-08-25T13:03:15.318Z,22.30
2017-08-25T13:05:42.863Z,22.40
2017-08-25T13:08:10.376Z,22.30
2017-08-25T13:10:37.928Z,22.20
2017-08-25T13:13:05.480Z,22.20
2017-08-25T13:15:32.993Z,22.10
2017-08-25T13:18:00.495Z,22.10
2017-08-25T13:20:28.051Z,22.00
2017-08-25T13:22:55.583Z,22.00
2017-08-25T13:25:23.096Z,21.90
2017-08-25T13:27:50.637Z,22.00
2017-08-25T13:30:18.183Z,21.90
2017-08-25T13:32:45.659Z,21.90
2017-08-25T13:35:13.171Z,21.80
2017-08-25T13:37:40.694Z,21.60
2017-08-25T13:40:08.224Z,21.50
2017-08-25T13:42:35.754Z,21.60
2017-08-25T13:45:03.299Z,21.70
2017-08-25T13:47:30.927Z,21.70
2017-08-25T13:49:58.460Z,21.70
2017-08-25T13:52:25.969Z,21.80
2017-08-25T13:54:53.473Z,21.90
2017-08-25T13:57:21.048Z,21.90
2017-08-25T13:59:48.695Z,22.00
2017-08-25T14:02:16.219Z,22.10
2017-08-25T14:04:43.824Z,22.10
2017-08-25T14:07:11.387Z,22.20
2017-08-25T14:09:38.897Z,22.20
2017-08-25T14:12:06.512Z,22.20
2017-08-25T14:14:34.015Z,22.30
2017-08-25T14:17:01.546Z,22.30
2017-08-25T14:19:29.059Z,22.30
2017-08-25T14:21:56.582Z,22.30
2017-08-25T14:24:24.089Z,22.10
2017-08-25T14:26:51.673Z,22.10
2017-08-25T14:29:19.175Z,22.00
2017-08-25T14:31:46.711Z,22.00
2017-08-25T14:34:14.236Z,22.00
2017-08-25T14:36:41.762Z,21.80
2017-08-25T14:39:09.284Z,21.60
2017-08-25T14:41:36.800Z,21.50
2017-08-25T14:44:04.354Z,21.40
2017-08-25T14:46:31.873Z,21.40
2017-08-25T14:48:59.498Z,21.40
2017-08-25T14:51:27.002Z,21.40
2017-08-25T14:53:54.607Z,21.30
2017-08-25T14:56:22.105Z,21.30
2017-08-25T14:58:49.654Z,21.30
2017-08-25T15:01:17.127Z,21.30
2017-08-25T15:03:44.627Z,21.30
2017-08-25T15:06:12.170Z,21.20
2017-08-25T15:08:40.254Z,21.20
2017-08-25T15:11:07.791Z,21.10
2017-08-25T15:13:35.740Z,21.10
2017-08-25T15:16:03.257Z,21.00
2017-08-25T15:18:30.779Z,21.00
2017-08-25T15:20:58.324Z,21.00
2017-08-25T15:23:25.815Z,21.00
2017-08-25T15:25:53.356Z,21.00
2017-08-25T15:28:20.858Z,21.00
2017-08-25T15:30:48.366Z,20.90
2017-08-25T15:33:15.921Z,20.80
2017-08-25T15:35:43.463Z,20.70
2017-08-25T15:38:11.065Z,20.80
2017-08-25T15:40:38.582Z,20.80
2017-08-25T15:43:06.167Z,20.70
2017-08-25T15:45:33.694Z,20.70
2017-08-25T15:48:01.258Z,20.70
2017-08-25T15:50:28.973Z,20.70
2017-08-25T15:52:56.485Z,20.70
2017-08-25T15:55:24.033Z,20.80
2017-08-25T15:57:51.656Z,20.80
2017-08-25T16:00:19.162Z,20.70
2017-08-25T16:02:46.662Z,20.70
2017-08-25T16:05:14.224Z,20.70
2017-08-25T16:07:41.734Z,20.70
2017-08-25T16:10:09.279Z,20.70
2017-08-25T16:12:36.808Z,20.70
2017-08-25T16:15:04.303Z,20.60
2017-08-25T16:17:31.842Z,20.70
2017-08-25T16:19:59.370Z,20.70
2017-08-25T16:22:26.878Z,20.70
2017-08-25T16:24:54.405Z,20.60
2017-08-25T16:27:21.923Z,20.60
2017-08-25T16:29:49.415Z,20.50
2017-08-25T16:32:16.939Z,20.50
2017-08-25T16:34:44.484Z,20.50
2017-08-25T16:37:12.043Z,20.40
2017-08-25T16:39:39.539Z,20.40
2017-08-25T16:42:07.112Z,20.50
2017-08-25T16:44:34.616Z,20.40
2017-08-25T16:47:02.200Z,20.40
2017-08-25T16:49:31.287Z,20.40
2017-08-25T16:51:58.859Z,20.30
2017-08-25T16:54:26.441Z,20.20
2017-08-25T16:56:53.988Z,20.20
2017-08-25T16:59:21.541Z,20.20
2017-08-25T17:01:49.107Z,20.20
2017-08-25T17:04:16.660Z,20.10
2017-08-25T17:06:44.219Z,20.00
2017-08-25T17:09:11.800Z,20.00
2017-08-25T17:11:39.307Z,20.00
2017-08-25T17:14:06.873Z,19.90
2017-08-25T17:16:34.478Z,19.90
2017-08-25T17:19:02.032Z,19.80
2017-08-25T17:21:29.631Z,19.80
2017-08-25T17:23:57.299Z,19.80
2017-08-25T17:26:24.810Z,19.90
2017-08-25T17:28:52.561Z,19.80
2017-08-25T17:31:20.133Z,19.70
2017-08-25T17:33:47.664Z,19.70
2017-08-25T17:36:15.229Z,19.70
2017-08-25T17:38:42.808Z,19.60
2017-08-25T17:41:10.369Z,19.50
2017-08-25T17:43:37.933Z,19.50
2017-08-25T17:46:05.476Z,19.50
2017-08-25T17:50:56.005Z,19.40
2017-08-25T17:53:23.670Z,19.30
2017-08-25T17:55:51.252Z,19.30
2017-08-25T17:58:18.786Z,19.30
2017-08-25T18:00:46.941Z,19.10
2017-08-25T18:03:14.461Z,19.10
2017-08-25T18:05:41.977Z,19.00
2017-08-25T18:08:09.511Z,19.00
2017-08-25T18:10:37.140Z,18.90
2017-08-25T18:13:04.659Z,18.90
2017-08-25T18:15:32.204Z,18.80
2017-08-25T18:17:59.799Z,18.70
2017-08-25T18:20:27.332Z,18.70
2017-08-25T18:22:54.950Z,18.70
2017-08-25T18:25:22.505Z,18.60
2017-08-25T18:27:50.036Z,18.50
2017-08-25T18:30:17.555Z,18.50
2017-08-25T18:32:45.124Z,18.40
2017-08-25T18:35:12.690Z,18.30
2017-08-25T18:37:40.238Z,18.30
2017-08-25T18:40:07.799Z,18.20
2017-08-25T18:42:35.348Z,18.20
2017-08-25T18:45:02.964Z,18.10
2017-08-25T18:47:30.517Z,18.10
2017-08-25T18:49:58.074Z,18.00
2017-08-25T18:52:25.662Z,17.90
2017-08-25T18:54:53.397Z,17.90
2017-08-25T18:57:21.036Z,17.80
2017-08-25T18:59:48.767Z,17.70
2017-08-25T19:02:16.324Z,17.70
2017-08-25T19:04:43.861Z,17.70
2017-08-25T19:07:11.549Z,17.60
2017-08-25T19:09:39.118Z,17.60
2017-08-25T19:12:06.692Z,17.50
2017-08-25T19:14:34.332Z,17.50
2017-08-25T19:17:01.899Z,17.40
2017-08-25T19:19:29.465Z,17.40
2017-08-25T19:21:57.004Z,17.30
2017-08-25T19:24:24.572Z,17.20
2017-08-25T19:26:52.119Z,17.20
2017-08-25T19:29:19.680Z,17.20
2017-08-25T19:31:47.244Z,17.10
2017-08-25T19:34:14.871Z,17.10
2017-08-25T19:36:42.420Z,17.10
2017-08-25T19:39:10.319Z,17.00
2017-08-25T19:41:38.003Z,17.00
2017-08-25T19:44:05.627Z,17.00
2017-08-25T19:46:33.505Z,16.90
2017-08-25T19:49:01.038Z,16.90
2017-08-25T19:51:28.752Z,16.80
2017-08-25T19:53:56.306Z,16.80
2017-08-25T19:56:24.131Z,16.70
2017-08-25T19:58:51.692Z,16.70
2017-08-25T20:01:19.249Z,16.70
2017-08-25T20:03:46.836Z,16.60
2017-08-25T20:06:14.422Z,16.60
2017-08-25T20:08:41.961Z,16.60
2017-08-25T20:11:09.489Z,16.50
2017-08-25T20:13:37.171Z,16.50
2017-08-25T20:16:04.695Z,16.50
2017-08-25T20:18:32.240Z,16.40
2017-08-25T20:20:59.801Z,16.40
2017-08-25T20:23:27.359Z,16.40
2017-08-25T20:25:55.370Z,16.30
2017-08-25T20:28:22.993Z,16.30
2017-08-25T20:30:50.571Z,16.30
2017-08-25T20:33:18.080Z,16.30
2017-08-25T20:35:45.576Z,16.20
2017-08-25T20:38:13.135Z,16.20
2017-08-25T20:40:40.674Z,16.20
2017-08-25T20:43:08.234Z,16.20
2017-08-25T20:45:35.809Z,16.10
2017-08-25T20:48:03.337Z,16.10
2017-08-25T20:50:30.934Z,16.10
2017-08-25T20:52:58.459Z,16.10
2017-08-25T20:55:26.051Z,16.00
2017-08-25T20:57:53.585Z,16.00
2017-08-25T21:00:21.201Z,16.00
2017-08-25T21:02:48.983Z,16.00
2017-08-25T21:05:16.600Z,16.00
2017-08-25T21:07:44.162Z,15.90
2017-08-25T21:10:11.836Z,15.90
2017-08-25T21:12:39.385Z,15.90
2017-08-25T21:15:07.239Z,15.80
2017-08-25T21:17:34.813Z,15.80
2017-08-25T21:20:02.426Z,15.80
2017-08-25T21:22:30.037Z,15.80
2017-08-25T21:24:57.746Z,15.80
2017-08-25T21:27:25.465Z,15.70
2017-08-25T21:29:53.076Z,15.70
2017-08-25T21:32:20.688Z,15.60
2017-08-25T21:34:48.347Z,15.60
2017-08-25T21:37:16.005Z,15.60
2017-08-25T21:39:43.563Z,15.60
2017-08-25T21:42:11.246Z,15.50
2017-08-25T21:44:38.881Z,15.50
2017-08-25T21:47:06.545Z,15.50
2017-08-25T21:49:34.242Z,15.40
2017-08-25T21:52:01.862Z,15.40
2017-08-25T21:54:29.389Z,15.40
2017-08-25T21:56:56.998Z,15.30
2017-08-25T21:59:24.575Z,15.30
2017-08-25T22:01:52.220Z,15.20
2017-08-25T22:04:19.876Z,15.20
2017-08-25T22:06:47.532Z,15.20
2017-08-25T22:09:15.232Z,15.20
2017-08-25T22:11:42.799Z,15.10
2017-08-25T22:14:10.422Z,15.10
2017-08-25T22:16:37.984Z,15.10
2017-08-25T22:19:05.595Z,14.90
2017-08-25T22:21:33.321Z,14.70
2017-08-25T22:24:01.176Z,14.60
2017-08-25T22:26:28.823Z,14.50
2017-08-25T22:29:02.024Z,14.50
2017-08-25T22:31:29.590Z,14.60
2017-08-25T22:33:57.134Z,14.70
2017-08-25T22:36:24.672Z,14.70
2017-08-25T22:38:52.275Z,14.60
2017-08-25T22:41:19.895Z,14.40
2017-08-25T22:43:47.450Z,14.30
2017-08-25T22:46:14.962Z,14.30
2017-08-25T22:48:42.816Z,14.20
2017-08-25T22:51:10.384Z,14.30
2017-08-25T22:53:37.925Z,14.30
2017-08-25T22:56:05.642Z,14.30
2017-08-25T22:58:33.185Z,14.30
2017-08-25T23:01:00.795Z,14.20
2017-08-25T23:03:28.317Z,14.30
2017-08-25T23:05:55.936Z,14.30
2017-08-25T23:08:23.664Z,14.30
2017-08-25T23:10:51.228Z,14.20
2017-08-25T23:13:18.897Z,14.00
2017-08-25T23:15:46.476Z,13.90
2017-08-25T23:18:14.016Z,13.90
2017-08-25T23:20:41.662Z,13.80
2017-08-25T23:23:09.268Z,13.90
2017-08-25T23:25:36.843Z,13.90
2017-08-25T23:28:04.411Z,14.00
2017-08-25T23:30:31.947Z,14.10
2017-08-25T23:32:59.512Z,14.10
2017-08-25T23:35:27.027Z,14.10
2017-08-25T23:37:54.557Z,14.10
2017-08-25T23:40:22.065Z,14.10
2017-08-25T23:42:49.591Z,14.10
2017-08-25T23:45:17.099Z,14.10
2017-08-25T23:47:45.023Z,14.10
2017-08-25T23:50:12.524Z,14.10
2017-08-25T23:52:40.047Z,14.00
2017-08-25T23:55:07.535Z,14.00
2017-08-25T23:57:35.012Z,14.00
